Time;durP1;ratioP1;P1;durP2;ratioP2;P2;SDS_P1;SDS_P2;PMS_P1;PMS_P2;Temp;Humidity;BMP_temperature;BMP_pressure;BME280_temperature;BME280_humidity;BME280_pressure;Samples;Min_cycle;Max_cycle;Signal;HPM_P1;HPM_P2
2023/05/25 03:09:30;;;;;;;20.77;16.98;;;14.80;99.90;;;;;;6225719;22;20036;-90
2023/05/25 03:15:26;;;;;;;20.17;16.35;;;14.80;99.90;;;;;;6279181;22;20054;-93
2023/05/25 03:17:55;;;;;;;19.10;16.42;;;14.90;99.90;;;;;;6245465;22;20008;-93
2023/05/25 03:20:31;;;;;;;17.38;15.68;;;15.00;99.90;;;;;;6227475;22;20007;-93
2023/05/25 03:23:22;;;;;;;;;;;;;;;;;;;;;
2023/05/25 03:26:03;;;;;;;19.70;16.05;;;15.10;99.90;;;;;;6252320;22;20008;-92
2023/05/25 03:28:40;;;;;;;17.73;15.82;;;15.20;99.90;;;;;;6229222;22;20008;-92
2023/05/25 03:31:11;;;;;;;17.80;15.73;;;15.20;99.90;;;;;;6252342;22;20039;-93
2023/05/25 03:33:40;;;;;;;22.40;16.05;;;15.20;99.90;;;;;;6252076;22;20019;-91
2023/05/25 03:36:11;;;;;;;18.73;15.88;;;15.20;99.90;;;;;;6237653;22;19999;-92
2023/05/25 03:38:38;;;;;;;18.38;16.00;;;15.20;99.90;;;;;;6252433;22;20094;-92
2023/05/25 03:41:08;;;;;;;18.75;16.02;;;15.20;99.90;;;;;;6227054;22;20075;-93
2023/05/25 03:43:46;;;;;;;20.23;16.93;;;15.20;99.90;;;;;;6227500;22;20024;-93
2023/05/25 03:46:19;;;;;;;18.33;16.33;;;15.20;99.90;;;;;;6253277;22;20042;-94
2023/05/25 03:48:48;;;;;;;18.05;16.15;;;15.30;99.90;;;;;;6252427;22;20007;-93
2023/05/25 03:51:26;;;;;;;27.70;18.15;;;15.40;99.90;;;;;;6226892;22;20078;-93
2023/05/25 03:54:17;;;;;;;22.52;17.58;;;15.50;99.90;;;;;;6226759;22;20375;-93
2023/05/25 03:56:58;;;;;;;24.63;17.48;;;15.50;99.90;;;;;;6251908;22;20011;-92
2023/05/25 04:00:13;;;;;;;21.10;17.92;;;15.40;99.90;;;;;;6254407;22;20015;-94
2023/05/25 04:10:04;;;;;;;22.70;17.52;;;15.40;99.90;;;;;;6156447;23;20092;-92
2023/05/25 04:12:59;;;;;;;20.80;17.55;;;15.50;99.90;;;;;;6134222;23;20538;-93
2023/05/25 04:15:46;;;;;;;23.73;17.00;;;15.60;99.90;;;;;;6109530;23;20017;-93
2023/05/25 06:29:17;;;;;;;28.40;26.25;;;29.50;99.90;;;;;;6246668;22;20015;-95
2023/05/25 06:47:06;;;;;;;29.48;27.17;;;29.80;99.90;;;;;;6195111;23;20028;-94
2023/05/25 07:26:09;;;;;;;28.35;26.38;;;30.90;99.90;;;;;;6277534;22;19922;-81
2023/05/25 07:28:39;;;;;;;27.52;25.85;;;30.50;99.90;;;;;;6230092;22;20012;-91
2023/05/25 07:31:06;;;;;;;28.80;26.90;;;30.30;99.90;;;;;;6229676;22;20437;-90
2023/05/25 07:33:32;;;;;;;28.88;26.98;;;30.60;99.90;;;;;;6234293;22;20389;-89
2023/05/25 07:36:01;;;;;;;27.88;25.75;;;30.90;99.90;;;;;;6198830;23;20001;-93
2023/05/25 07:38:28;;;;;;;29.42;27.35;;;31.00;99.90;;;;;;6225248;23;20066;-90
2023/05/25 07:40:54;;;;;;;27.67;25.88;;;31.10;99.90;;;;;;6200276;23;20000;-79
2023/05/25 07:43:22;;;;;;;28.55;26.45;;;31.20;99.90;;;;;;6248534;22;20012;-90
2023/05/25 07:45:49;;;;;;;28.30;26.17;;;31.60;99.90;;;;;;6199939;23;20069;-73
2023/05/25 07:48:15;;;;;;;28.30;26.40;;;31.60;99.90;;;;;;6248308;23;20209;-83
2023/05/25 07:50:42;;;;;;;28.30;26.38;;;30.80;99.90;;;;;;6245502;22;20020;-78
2023/05/25 07:53:08;;;;;;;27.65;25.85;;;31.40;99.90;;;;;;6248937;22;20456;-77
2023/05/25 07:55:35;;;;;;;29.42;27.27;;;30.70;99.90;;;;;;6249561;23;20488;-79
2023/05/25 07:58:01;;;;;;;29.50;27.02;;;30.20;99.90;;;;;;6222765;23;20072;-78
2023/05/25 08:00:27;;;;;;;29.27;27.30;;;30.20;99.90;;;;;;6223559;23;20020;-90
2023/05/25 08:02:55;;;;;;;29.63;27.52;;;29.50;99.90;;;;;;6198614;23;20083;-88
2023/05/25 08:05:21;;;;;;;29.33;26.80;;;29.80;99.90;;;;;;6223639;23;20093;-91
2023/05/25 08:07:48;;;;;;;28.90;26.95;;;30.60;99.90;;;;;;6198443;23;20000;-88
2023/05/25 08:10:14;;;;;;;29.23;27.00;;;30.70;99.90;;;;;;6199437;23;20035;-88
2023/05/25 08:12:41;;;;;;;28.80;26.90;;;30.90;99.90;;;;;;6198225;23;20008;-89
2023/05/25 08:15:07;;;;;;;29.13;26.90;;;30.70;99.90;;;;;;6198176;23;20065;-88
2023/05/25 08:17:34;;;;;;;28.55;26.65;;;30.40;99.90;;;;;;6198167;23;20004;-87
2023/05/25 08:20:01;;;;;;;28.13;25.83;;;30.00;99.90;;;;;;6198427;23;20087;-89
2023/05/25 08:22:27;;;;;;;27.33;25.52;;;29.80;99.90;;;;;;6198029;23;20016;-87
2023/05/25 08:24:54;;;;;;;29.75;27.73;;;29.40;99.90;;;;;;6198095;23;20055;-89
2023/05/25 09:24:27;;;;;;;28.85;26.80;;;29.30;99.90;;;;;;6264321;22;20114;-92
2023/05/25 09:27:19;;;;;;;28.13;26.38;;;29.20;99.90;;;;;;6254414;22;20060;-92
2023/05/25 09:49:32;;;;;;;28.52;26.65;;;28.90;99.30;;;;;;6277317;22;20302;-92
2023/05/25 18:06:37;;;;;;;;;;;;;;;;;;;;;
2023/05/25 18:09:27;;;;;;;24.90;22.70;;;21.50;99.90;;;;;;6171592;23;20054;-92
2023/05/25 18:22:44;;;;;;;21.60;20.10;;;21.10;99.90;;;;;;6288305;22;20023;-95
2023/05/25 18:25:14;;;;;;;22.60;20.90;;;21.00;99.90;;;;;;6242527;22;20035;-95
2023/05/25 19:57:24;;;;;;;;;;;;;;;;;;;;;
